createdAt,value
2023-01-28T00:00:30.648Z,51.216248
2023-01-28T00:01:30.616Z,51.216282
2023-01-28T00:02:30.695Z,51.216122
2023-01-28T00:03:30.643Z,51.216236
2023-01-28T00:04:30.603Z,51.216103
2023-01-28T00:05:30.603Z,51.216103
2023-01-28T00:06:30.591Z,51.216095
2023-01-28T00:07:30.648Z,51.216000
2023-01-28T00:08:30.571Z,51.215916
2023-01-28T00:09:30.692Z,51.215652
2023-01-28T00:10:30.576Z,51.215878
2023-01-28T00:11:30.555Z,51.216152
2023-01-28T00:12:30.559Z,51.216179
2023-01-28T00:13:30.539Z,51.216312
2023-01-28T00:14:30.555Z,51.216034
2023-01-28T00:15:30.547Z,51.215904
2023-01-28T00:16:30.675Z,51.215889
2023-01-28T00:17:30.560Z,51.215981
2023-01-28T00:18:30.531Z,51.215893
2023-01-28T00:19:30.523Z,51.215805
2023-01-28T00:20:30.494Z,51.215862
2023-01-28T00:21:30.511Z,51.216011
2023-01-28T00:22:30.534Z,51.216068
2023-01-28T00:23:30.471Z,51.216145
2023-01-28T00:24:30.515Z,51.216152
2023-01-28T00:25:30.468Z,51.216099
2023-01-28T00:26:30.468Z,51.216099
2023-01-28T00:27:30.475Z,51.216076
2023-01-28T00:28:30.454Z,51.216179
2023-01-28T00:29:30.459Z,51.216255
2023-01-28T00:30:30.442Z,51.216370
2023-01-28T00:31:30.462Z,51.216190
2023-01-28T00:32:30.416Z,51.216034
2023-01-28T00:33:30.422Z,51.215637
2023-01-28T00:34:30.419Z,51.215702
2023-01-28T00:35:30.431Z,51.215862
2023-01-28T00:36:30.395Z,51.215973
2023-01-28T00:37:30.392Z,51.215935
2023-01-28T00:38:30.418Z,51.215885
2023-01-28T00:39:30.389Z,51.215836
2023-01-28T00:40:30.382Z,51.215855
2023-01-28T00:41:30.381Z,51.215855
2023-01-28T00:42:30.360Z,51.215855
2023-01-28T00:43:30.369Z,51.215855
2023-01-28T00:44:30.351Z,51.215939
2023-01-28T00:45:30.347Z,51.215790
2023-01-28T00:46:30.370Z,51.215855
2023-01-28T00:47:31.330Z,51.215782
2023-01-28T00:48:30.319Z,51.215858
2023-01-28T00:49:30.340Z,51.215919
2023-01-28T00:50:30.300Z,51.215881
2023-01-28T00:51:30.308Z,51.216019
2023-01-28T00:52:30.309Z,51.216042
2023-01-28T00:53:30.284Z,51.216194
2023-01-28T00:54:30.273Z,51.216171
2023-01-28T00:55:30.277Z,51.216137
2023-01-28T00:56:30.262Z,51.216061
2023-01-28T00:57:30.272Z,51.216171
2023-01-28T00:58:30.247Z,51.216263
2023-01-28T00:59:30.276Z,51.216167
2023-01-28T01:00:30.243Z,51.216042
2023-01-28T01:01:30.258Z,51.216087
2023-01-28T01:02:30.307Z,51.216084
2023-01-28T01:03:30.234Z,51.216141
2023-01-28T01:04:30.223Z,51.216118
2023-01-28T01:05:30.205Z,51.216133
2023-01-28T01:06:30.224Z,51.216187
2023-01-28T01:07:30.215Z,51.216038
2023-01-28T01:08:30.320Z,51.215900
2023-01-28T01:09:30.189Z,51.216057
2023-01-28T01:10:30.224Z,51.216187
2023-01-28T01:11:30.168Z,51.216129
2023-01-28T01:12:30.176Z,51.216003
2023-01-28T01:13:30.149Z,51.216076
2023-01-28T01:14:30.163Z,51.215935
2023-01-28T01:15:30.177Z,51.216022
2023-01-28T01:16:30.144Z,51.216209
2023-01-28T01:17:30.119Z,51.216068
2023-01-28T01:18:30.144Z,51.216030
2023-01-28T01:19:30.128Z,51.215942
2023-01-28T01:20:30.101Z,51.216099
2023-01-28T01:21:30.103Z,51.215984
2023-01-28T01:22:30.082Z,51.216022
2023-01-28T01:23:30.106Z,51.216064
2023-01-28T01:24:30.222Z,51.216358
2023-01-28T01:25:30.085Z,51.216343
2023-01-28T01:26:30.110Z,51.216255
2023-01-28T01:27:30.058Z,51.216183
2023-01-28T01:28:30.046Z,51.216187
2023-01-28T01:29:30.059Z,51.216175
2023-01-28T01:30:30.050Z,51.216148
2023-01-28T01:31:30.123Z,51.215958
2023-01-28T01:32:30.015Z,51.216263
2023-01-28T01:33:30.034Z,51.216373
2023-01-28T01:34:30.034Z,51.216160
2023-01-28T01:35:29.996Z,51.215904
2023-01-28T01:36:30.003Z,51.215942
2023-01-28T01:37:29.990Z,51.215916
2023-01-28T01:38:30.012Z,51.216137
2023-01-28T01:39:29.997Z,51.215889
2023-01-28T01:40:29.976Z,51.215851
2023-01-28T01:41:29.967Z,51.215492
2023-01-28T01:42:29.959Z,51.215267
2023-01-28T01:43:29.954Z,51.215389
2023-01-28T01:44:29.998Z,51.215519
2023-01-28T01:45:29.942Z,51.215809
2023-01-28T01:46:29.944Z,51.215939
2023-01-28T01:47:29.926Z,51.215992
2023-01-28T01:48:29.917Z,51.216064
2023-01-28T01:49:29.916Z,51.215893
2023-01-28T01:50:29.916Z,51.215923
2023-01-28T01:51:29.892Z,51.215878
2023-01-28T01:52:30.906Z,51.215942
2023-01-28T01:53:29.885Z,51.215858
2023-01-28T01:54:29.881Z,51.215897
2023-01-28T01:55:29.872Z,51.215828
2023-01-28T01:56:29.886Z,51.215641
2023-01-28T01:57:29.862Z,51.215622
2023-01-28T01:58:29.856Z,51.215801
2023-01-28T01:59:29.839Z,51.215633
2023-01-28T02:00:29.837Z,51.215443
2023-01-28T02:01:29.839Z,51.215427
2023-01-28T02:02:29.903Z,51.215557
2023-01-28T02:03:29.876Z,51.215694
2023-01-28T02:04:29.809Z,51.215748
2023-01-28T02:05:29.798Z,51.215836
2023-01-28T02:06:29.831Z,51.215889
2023-01-28T02:07:29.814Z,51.215847
2023-01-28T02:08:29.778Z,51.215698
2023-01-28T02:09:29.888Z,51.215981
2023-01-28T02:10:29.766Z,51.215950
2023-01-28T02:11:29.779Z,51.215816
2023-01-28T02:12:29.771Z,51.215950
2023-01-28T02:13:29.787Z,51.215664
2023-01-28T02:14:31.764Z,51.215935
2023-01-28T02:15:30.740Z,51.216038
2023-01-28T02:16:29.793Z,51.215523
2023-01-28T02:17:29.780Z,51.215698
2023-01-28T02:18:29.716Z,51.215458
2023-01-28T02:19:29.742Z,51.215439
2023-01-28T02:20:29.707Z,51.215874
2023-01-28T02:21:29.722Z,51.216042
2023-01-28T02:22:29.693Z,51.215935
2023-01-28T02:23:29.718Z,51.215519
2023-01-28T02:24:29.879Z,51.215801
2023-01-28T02:25:29.682Z,51.215485
2023-01-28T02:26:29.675Z,51.215813
2023-01-28T02:27:29.661Z,51.215565
2023-01-28T02:28:29.648Z,51.215530
2023-01-28T02:29:29.684Z,51.215805
2023-01-28T02:30:29.740Z,51.215500
2023-01-28T02:31:29.806Z,51.215611
2023-01-28T02:32:29.646Z,51.215572
2023-01-28T02:33:29.628Z,51.215927
2023-01-28T02:34:29.653Z,51.216290
2023-01-28T02:35:29.615Z,51.215954
2023-01-28T02:36:29.614Z,51.215916
2023-01-28T02:37:29.613Z,51.215729
2023-01-28T02:38:29.586Z,51.215664
2023-01-28T02:39:29.588Z,51.215488
2023-01-28T02:40:29.576Z,51.215836
2023-01-28T02:41:29.578Z,51.215595
2023-01-28T02:42:29.602Z,51.215828
2023-01-28T02:43:29.592Z,51.216019
2023-01-28T02:44:29.559Z,51.215866
2023-01-28T02:45:29.546Z,51.215904
2023-01-28T02:46:29.593Z,51.216003
2023-01-28T02:47:29.543Z,51.216152
2023-01-28T02:48:29.532Z,51.216324
2023-01-28T02:49:29.511Z,51.216370
2023-01-28T02:50:29.525Z,51.216183
2023-01-28T02:51:29.510Z,51.216179
2023-01-28T02:52:29.495Z,51.216099
2023-01-28T02:53:29.517Z,51.216320
2023-01-28T02:54:29.511Z,51.216114
2023-01-28T02:55:29.517Z,51.216164
2023-01-28T02:56:29.729Z,51.216038
2023-01-28T02:57:29.471Z,51.216045
2023-01-28T02:58:29.471Z,51.216007
2023-01-28T02:59:29.480Z,51.216362
2023-01-28T03:00:29.455Z,51.216423
2023-01-28T03:01:29.516Z,51.216328
2023-01-28T03:02:29.491Z,51.216305
2023-01-28T03:03:29.437Z,51.216160
2023-01-28T03:04:29.423Z,51.216141
2023-01-28T03:05:29.422Z,51.216171
2023-01-28T03:06:29.443Z,51.216187
2023-01-28T03:07:29.424Z,51.216148
2023-01-28T03:08:29.437Z,51.216244
2023-01-28T03:09:29.417Z,51.216206
2023-01-28T03:10:29.393Z,51.216209
2023-01-28T03:11:29.379Z,51.216385
2023-01-28T03:12:29.388Z,51.216320
2023-01-28T03:13:29.366Z,51.216198
2023-01-28T03:14:29.369Z,51.216148
2023-01-28T03:15:29.399Z,51.215904
2023-01-28T03:16:29.354Z,51.216057
2023-01-28T03:17:29.436Z,51.216091
2023-01-28T03:18:29.353Z,51.216148
2023-01-28T03:19:29.351Z,51.216270
2023-01-28T03:20:29.342Z,51.216251
2023-01-28T03:21:29.323Z,51.216152
2023-01-28T03:22:29.358Z,51.216091
2023-01-28T03:23:29.303Z,51.216293
2023-01-28T03:24:29.307Z,51.216206
2023-01-28T03:25:29.314Z,51.216137
2023-01-28T03:26:29.321Z,51.216160
2023-01-28T03:27:29.340Z,51.216175
2023-01-28T03:28:29.279Z,51.216095
2023-01-28T03:29:29.263Z,51.216122
2023-01-28T03:30:29.295Z,51.216129
2023-01-28T03:31:29.271Z,51.216221
2023-01-28T03:32:29.258Z,51.216187
2023-01-28T03:33:29.292Z,51.216103
2023-01-28T03:34:29.268Z,51.216179
2023-01-28T03:35:29.288Z,51.216225
2023-01-28T03:36:29.223Z,51.216225
2023-01-28T03:37:29.214Z,51.216221
2023-01-28T03:38:29.234Z,51.216190
2023-01-28T03:39:29.216Z,51.216206
2023-01-28T03:40:29.208Z,51.216148
2023-01-28T03:41:29.198Z,51.216064
2023-01-28T03:42:29.202Z,51.215954
2023-01-28T03:43:29.204Z,51.215912
2023-01-28T03:44:29.197Z,51.216000
2023-01-28T03:45:29.184Z,51.215847
2023-01-28T03:46:29.225Z,51.215836
2023-01-28T03:47:29.181Z,51.216080
2023-01-28T03:48:29.156Z,51.216091
2023-01-28T03:49:29.172Z,51.216091
2023-01-28T03:50:29.138Z,51.216129
2023-01-28T03:51:29.229Z,51.216152
2023-01-28T03:52:29.128Z,51.216164
2023-01-28T03:53:29.120Z,51.216156
2023-01-28T03:54:29.225Z,51.216091
2023-01-28T03:55:29.138Z,51.216076
2023-01-28T03:56:29.115Z,51.215981
2023-01-28T03:57:29.124Z,51.215977
2023-01-28T03:58:29.091Z,51.216026
2023-01-28T03:59:29.074Z,51.216015
2023-01-28T04:00:29.070Z,51.216141
2023-01-28T04:01:29.095Z,51.216091
2023-01-28T04:02:29.124Z,51.216133
2023-01-28T04:03:29.072Z,51.216106
2023-01-28T04:04:29.042Z,51.216118
2023-01-28T04:05:29.035Z,51.216137
2023-01-28T04:06:29.315Z,51.216141
2023-01-28T04:07:29.175Z,51.216198
2023-01-28T04:08:29.010Z,51.216007
2023-01-28T04:09:29.028Z,51.216228
2023-01-28T04:10:29.005Z,51.216175
2023-01-28T04:11:28.994Z,51.216171
2023-01-28T04:12:29.238Z,51.216110
2023-01-28T04:13:29.026Z,51.216038
2023-01-28T04:14:28.974Z,51.216068
2023-01-28T04:15:28.982Z,51.216038
2023-01-28T04:16:29.042Z,51.216122
2023-01-28T04:17:28.976Z,51.216068
2023-01-28T04:18:28.972Z,51.216038
2023-01-28T04:19:28.971Z,51.216045
2023-01-28T04:20:28.946Z,51.216068
2023-01-28T04:21:28.957Z,51.216114
2023-01-28T04:22:28.948Z,51.216217
2023-01-28T04:23:28.923Z,51.216156
2023-01-28T04:24:29.041Z,51.216465
2023-01-28T04:25:28.912Z,51.216251
2023-01-28T04:26:28.911Z,51.216152
2023-01-28T04:27:28.922Z,51.216026
2023-01-28T04:28:28.891Z,51.216160
2023-01-28T04:29:29.372Z,51.216080
2023-01-28T04:30:28.955Z,51.216015
2023-01-28T04:31:28.903Z,51.216034
2023-01-28T04:32:28.908Z,51.216087
2023-01-28T04:33:28.866Z,51.216000
2023-01-28T04:34:28.874Z,51.215961
2023-01-28T04:35:28.879Z,51.215992
2023-01-28T04:36:28.851Z,51.216022
2023-01-28T04:37:28.838Z,51.216164
2023-01-28T04:38:28.830Z,51.216194
2023-01-28T04:39:28.861Z,51.216118
2023-01-28T04:40:28.826Z,51.216125
2023-01-28T04:41:28.819Z,51.216164
2023-01-28T04:42:28.814Z,51.216114
2023-01-28T04:43:28.806Z,51.216122
2023-01-28T04:44:28.793Z,51.216152
2023-01-28T04:45:28.814Z,51.216091
2023-01-28T04:46:28.798Z,51.216137
2023-01-28T04:47:28.779Z,51.216209
2023-01-28T04:48:28.775Z,51.216148
2023-01-28T04:49:29.775Z,51.216114
2023-01-28T04:50:28.788Z,51.216038
2023-01-28T04:51:28.778Z,51.216068
2023-01-28T04:52:28.746Z,51.216030
2023-01-28T04:53:28.744Z,51.216026
2023-01-28T04:54:28.734Z,51.216061
2023-01-28T04:55:28.723Z,51.216080
2023-01-28T04:56:28.739Z,51.216137
2023-01-28T04:57:28.713Z,51.216171
2023-01-28T04:58:28.705Z,51.216129
2023-01-28T04:59:28.698Z,51.216167
2023-01-28T05:00:28.698Z,51.216118
2023-01-28T05:01:28.722Z,51.216064
2023-01-28T05:02:28.673Z,51.216061
2023-01-28T05:03:28.950Z,51.216125
2023-01-28T05:04:28.669Z,51.216236
2023-01-28T05:05:28.671Z,51.215996
2023-01-28T05:06:28.667Z,51.216076
2023-01-28T05:07:28.648Z,51.216015
2023-01-28T05:08:28.654Z,51.216103
2023-01-28T05:09:28.643Z,51.216064
2023-01-28T05:10:28.630Z,51.215984
2023-01-28T05:11:28.635Z,51.216007
2023-01-28T05:12:28.721Z,51.216080
2023-01-28T05:13:28.632Z,51.215946
2023-01-28T05:14:28.631Z,51.215961
2023-01-28T05:15:28.713Z,51.216011
2023-01-28T05:16:28.611Z,51.216206
2023-01-28T05:17:28.670Z,51.216156
2023-01-28T05:18:28.579Z,51.215836
2023-01-28T05:19:28.600Z,51.215858
2023-01-28T05:20:28.590Z,51.215992
2023-01-28T05:21:28.577Z,51.215885
2023-01-28T05:22:28.551Z,51.215778
2023-01-28T05:23:28.548Z,51.215797
2023-01-28T05:24:28.741Z,51.215874
2023-01-28T05:25:28.549Z,51.215881
2023-01-28T05:26:28.529Z,51.215946
2023-01-28T05:27:28.528Z,51.216049
2023-01-28T05:28:28.533Z,51.216019
2023-01-28T05:29:28.515Z,51.216187
2023-01-28T05:30:28.588Z,51.216152
2023-01-28T05:31:28.502Z,51.216076
2023-01-28T05:32:28.528Z,51.216099
2023-01-28T05:33:28.477Z,51.216034
2023-01-28T05:34:28.507Z,51.216141
2023-01-28T05:35:28.493Z,51.216042
2023-01-28T05:36:28.475Z,51.216061
2023-01-28T05:37:28.471Z,51.216076
2023-01-28T05:38:28.460Z,51.216057
2023-01-28T05:39:28.442Z,51.216084
2023-01-28T05:40:28.455Z,51.216061
2023-01-28T05:41:28.437Z,51.216099
2023-01-28T05:42:28.428Z,51.216141
2023-01-28T05:43:28.414Z,51.216026
2023-01-28T05:44:28.415Z,51.216068
2023-01-28T05:45:28.428Z,51.216042
2023-01-28T05:46:28.449Z,51.215977
2023-01-28T05:47:28.458Z,51.215973
2023-01-28T05:48:28.456Z,51.216045
2023-01-28T05:49:28.438Z,51.216064
2023-01-28T05:50:28.393Z,51.216045
2023-01-28T05:51:28.398Z,51.216057
2023-01-28T05:52:28.348Z,51.216099
2023-01-28T05:53:28.346Z,51.216129
2023-01-28T05:54:28.346Z,51.216122
2023-01-28T05:55:28.328Z,51.216099
2023-01-28T05:56:28.393Z,51.216167
2023-01-28T05:57:28.352Z,51.216179
2023-01-28T05:58:28.311Z,51.216091
2023-01-28T05:59:28.300Z,51.216114
2023-01-28T06:00:28.313Z,51.216122
2023-01-28T06:01:28.314Z,51.216179
2023-01-28T06:02:28.324Z,51.216061
2023-01-28T06:03:28.287Z,51.216061
2023-01-28T06:04:28.285Z,51.216110
2023-01-28T06:05:28.335Z,51.216095
2023-01-28T06:06:28.294Z,51.216137
2023-01-28T06:07:28.280Z,51.216141
2023-01-28T06:08:28.262Z,51.216110
2023-01-28T06:09:28.259Z,51.216137
2023-01-28T06:10:28.254Z,51.216129
2023-01-28T06:11:28.240Z,51.216099
2023-01-28T06:12:28.244Z,51.216106
2023-01-28T06:13:28.230Z,51.216152
2023-01-28T06:14:28.221Z,51.216129
2023-01-28T06:15:28.203Z,51.216183
2023-01-28T06:16:28.205Z,51.216175
2023-01-28T06:17:28.206Z,51.216122
2023-01-28T06:18:28.203Z,51.216160
2023-01-28T06:19:28.186Z,51.216221
2023-01-28T06:20:28.192Z,51.216209
2023-01-28T06:21:30.128Z,51.216217
2023-01-28T06:22:29.173Z,51.216228
2023-01-28T06:23:28.163Z,51.216072
2023-01-28T06:24:28.223Z,51.216068
2023-01-28T06:25:28.147Z,51.216084
2023-01-28T06:26:28.140Z,51.216152
2023-01-28T06:27:28.145Z,51.216133
2023-01-28T06:28:28.125Z,51.216133
2023-01-28T06:29:28.135Z,51.216141
2023-01-28T06:30:28.130Z,51.216141
2023-01-28T06:31:28.139Z,51.216118
2023-01-28T06:32:28.139Z,51.216106
2023-01-28T06:33:28.114Z,51.216160
2023-01-28T06:34:28.078Z,51.216198
2023-01-28T06:35:28.073Z,51.216156
2023-01-28T06:36:28.057Z,51.216156
2023-01-28T06:37:28.067Z,51.216228
2023-01-28T06:38:28.073Z,51.216194
2023-01-28T06:39:28.058Z,51.216179
2023-01-28T06:40:28.043Z,51.216103
2023-01-28T06:41:28.026Z,51.216118
2023-01-28T06:42:28.030Z,51.216110
2023-01-28T06:43:28.060Z,51.216198
2023-01-28T06:44:28.076Z,51.216148
2023-01-28T06:45:28.020Z,51.216129
2023-01-28T06:46:28.064Z,51.216095
2023-01-28T06:47:28.003Z,51.216228
2023-01-28T06:48:27.998Z,51.216213
2023-01-28T06:49:28.013Z,51.216133
2023-01-28T06:50:27.982Z,51.216125
2023-01-28T06:51:27.988Z,51.216179
2023-01-28T06:52:27.974Z,51.216148
2023-01-28T06:53:27.956Z,51.216072
2023-01-28T06:54:28.005Z,51.216187
2023-01-28T06:55:27.970Z,51.216133
2023-01-28T06:56:27.949Z,51.216118
2023-01-28T06:57:27.942Z,51.216064
2023-01-28T06:58:27.930Z,51.216152
2023-01-28T06:59:27.925Z,51.216175
2023-01-28T07:00:27.928Z,51.216110
2023-01-28T07:01:27.946Z,51.216145
2023-01-28T07:02:27.908Z,51.216148
2023-01-28T07:03:27.907Z,51.216125
2023-01-28T07:04:27.892Z,51.216171
2023-01-28T07:05:27.890Z,51.216202
2023-01-28T07:06:27.913Z,51.216217
2023-01-28T07:07:27.897Z,51.216164
2023-01-28T07:08:27.858Z,51.216202
2023-01-28T07:09:27.857Z,51.216175
2023-01-28T07:10:27.859Z,51.216198
2023-01-28T07:11:27.852Z,51.216244
2023-01-28T07:12:27.860Z,51.216118
2023-01-28T07:13:27.832Z,51.216122
2023-01-28T07:14:28.831Z,51.216068
2023-01-28T07:15:27.846Z,51.216171
2023-01-28T07:16:27.822Z,51.216152
2023-01-28T07:17:27.864Z,51.216061
2023-01-28T07:18:27.820Z,51.216003
2023-01-28T07:19:27.805Z,51.216171
2023-01-28T07:20:27.816Z,51.216286
2023-01-28T07:21:27.778Z,51.216324
2023-01-28T07:22:27.772Z,51.216171
2023-01-28T07:23:29.131Z,51.216137
2023-01-28T07:24:28.842Z,51.216190
2023-01-28T07:25:27.758Z,51.216179
2023-01-28T07:26:27.751Z,51.216095
2023-01-28T07:27:27.736Z,51.216122
2023-01-28T07:28:27.753Z,51.216110
2023-01-28T07:29:27.745Z,51.216068
2023-01-28T07:30:27.732Z,51.216160
2023-01-28T07:31:27.790Z,51.216160
2023-01-28T07:32:27.717Z,51.216030
2023-01-28T07:33:27.751Z,51.216217
2023-01-28T07:34:27.750Z,51.216061
2023-01-28T07:35:27.731Z,51.216057
2023-01-28T07:36:27.724Z,51.216064
2023-01-28T07:37:27.696Z,51.215988
2023-01-28T07:38:27.672Z,51.215958
2023-01-28T07:39:27.681Z,51.215790
2023-01-28T07:40:27.689Z,51.215897
2023-01-28T07:41:27.645Z,51.216026
2023-01-28T07:42:27.659Z,51.216022
2023-01-28T07:43:27.641Z,51.216095
2023-01-28T07:44:27.645Z,51.215912
2023-01-28T07:45:27.633Z,51.216145
2023-01-28T07:46:27.628Z,51.216072
2023-01-28T07:47:27.681Z,51.215893
2023-01-28T07:48:27.627Z,51.215939
2023-01-28T07:49:27.612Z,51.215981
2023-01-28T07:50:27.658Z,51.216431
2023-01-28T07:51:27.599Z,51.216228
2023-01-28T07:52:27.591Z,51.216263
2023-01-28T07:53:27.592Z,51.216045
2023-01-28T07:54:27.577Z,51.216106
2023-01-28T07:55:30.995Z,51.215954
2023-01-28T07:56:27.604Z,51.215870
2023-01-28T07:57:27.553Z,51.215927
2023-01-28T07:58:27.549Z,51.216064
2023-01-28T07:59:27.541Z,51.216103
2023-01-28T08:00:28.575Z,51.216335
2023-01-28T08:01:27.567Z,51.216644
2023-01-28T08:02:27.538Z,51.216652
2023-01-28T08:03:27.520Z,51.216351
2023-01-28T08:04:27.566Z,51.216099
2023-01-28T08:05:27.717Z,51.216110
2023-01-28T08:06:27.573Z,51.215855
2023-01-28T08:07:27.491Z,51.215981
2023-01-28T08:08:27.476Z,51.216091
2023-01-28T08:09:27.479Z,51.215961
2023-01-28T08:10:27.475Z,51.215954
2023-01-28T08:11:27.484Z,51.216030
2023-01-28T08:12:27.460Z,51.216015
2023-01-28T08:13:27.460Z,51.216061
2023-01-28T08:14:27.456Z,51.216145
2023-01-28T08:15:27.481Z,51.216156
2023-01-28T08:16:27.466Z,51.216076
2023-01-28T08:17:27.443Z,51.216125
2023-01-28T08:18:27.444Z,51.216034
2023-01-28T08:19:27.428Z,51.216068
2023-01-28T08:20:27.420Z,51.216087
2023-01-28T08:21:27.419Z,51.216007
2023-01-28T08:22:27.422Z,51.215919
2023-01-28T08:23:27.471Z,51.215912
2023-01-28T08:24:27.430Z,51.215950
2023-01-28T08:25:27.384Z,51.216179
2023-01-28T08:26:27.369Z,51.215881
2023-01-28T08:27:27.383Z,51.215836
2023-01-28T08:28:27.359Z,51.215885
2023-01-28T08:29:27.374Z,51.215965
2023-01-28T08:30:27.356Z,51.215752
2023-01-28T08:31:27.393Z,51.216053
2023-01-28T08:32:27.364Z,51.215958
2023-01-28T08:33:27.326Z,51.216080
2023-01-28T08:34:27.323Z,51.215973
2023-01-28T08:35:27.323Z,51.215912
2023-01-28T08:36:27.311Z,51.215721
2023-01-28T08:37:27.322Z,51.216091
2023-01-28T08:38:27.299Z,51.216015
2023-01-28T08:39:27.295Z,51.216236
2023-01-28T08:40:27.280Z,51.216030
2023-01-28T08:41:27.279Z,51.216125
2023-01-28T08:42:27.281Z,51.216179
2023-01-28T08:43:27.273Z,51.215977
2023-01-28T08:44:27.274Z,51.215820
2023-01-28T08:45:28.009Z,51.216022
2023-01-28T08:46:28.253Z,51.216080
2023-01-28T08:47:27.243Z,51.216225
2023-01-28T08:48:27.235Z,51.216206
2023-01-28T08:49:27.279Z,51.215939
2023-01-28T08:50:27.246Z,51.215664
2023-01-28T08:51:27.202Z,51.215561
2023-01-28T08:52:27.195Z,51.215927
2023-01-28T08:53:27.194Z,51.216072
2023-01-28T08:54:27.223Z,51.216156
2023-01-28T08:55:27.206Z,51.216110
2023-01-28T08:56:27.187Z,51.216145
2023-01-28T08:57:27.164Z,51.216251
2023-01-28T08:58:27.168Z,51.216072
2023-01-28T08:59:27.181Z,51.216072
2023-01-28T09:00:27.159Z,51.216099
2023-01-28T09:01:27.168Z,51.216145
2023-01-28T09:02:31.807Z,51.216156
2023-01-28T09:03:28.150Z,51.216274
2023-01-28T09:04:27.155Z,51.216206
2023-01-28T09:05:27.132Z,51.216141
2023-01-28T09:06:27.140Z,51.216152
2023-01-28T09:07:27.107Z,51.216255
2023-01-28T09:08:27.108Z,51.216423
2023-01-28T09:09:27.103Z,51.216434
2023-01-28T09:10:27.084Z,51.216652
2023-01-28T09:11:27.109Z,51.216496
2023-01-28T09:12:27.080Z,51.216217
2023-01-28T09:13:27.107Z,51.216030
2023-01-28T09:14:27.077Z,51.215927
2023-01-28T09:15:27.056Z,51.215973
2023-01-28T09:16:27.133Z,51.215874
2023-01-28T09:17:27.040Z,51.216007
2023-01-28T09:18:27.032Z,51.216122
2023-01-28T09:19:27.044Z,51.215824
2023-01-28T09:20:27.020Z,51.215977
2023-01-28T09:21:27.015Z,51.216114
2023-01-28T09:22:27.024Z,51.216175
2023-01-28T09:23:27.024Z,51.216217
2023-01-28T09:24:27.090Z,51.215717
2023-01-28T09:25:26.992Z,51.215694
2023-01-28T09:26:27.001Z,51.216080
2023-01-28T09:27:26.981Z,51.216145
2023-01-28T09:28:26.981Z,51.216087
2023-01-28T09:29:26.963Z,51.216099
2023-01-28T09:30:27.032Z,51.216152
2023-01-28T09:31:27.041Z,51.216125
2023-01-28T09:32:26.968Z,51.216167
2023-01-28T09:33:26.935Z,51.216053
2023-01-28T09:34:26.954Z,51.216187
2023-01-28T09:35:26.925Z,51.216022
2023-01-28T09:36:26.939Z,51.216042
2023-01-28T09:37:26.936Z,51.216171
2023-01-28T09:38:26.916Z,51.216171
2023-01-28T09:39:26.895Z,51.216167
2023-01-28T09:40:26.898Z,51.215977
2023-01-28T09:41:26.883Z,51.216068
2023-01-28T09:42:26.891Z,51.216087
2023-01-28T09:43:26.893Z,51.216148
2023-01-28T09:44:26.862Z,51.216042
2023-01-28T09:45:26.850Z,51.215981
2023-01-28T09:46:26.887Z,51.216209
2023-01-28T09:47:26.853Z,51.216122
2023-01-28T09:48:26.852Z,51.216057
2023-01-28T09:49:26.831Z,51.216042
2023-01-28T09:50:26.820Z,51.216042
2023-01-28T09:51:26.820Z,51.216084
2023-01-28T09:52:26.835Z,51.216225
2023-01-28T09:53:26.836Z,51.216179
2023-01-28T09:54:26.800Z,51.216053
2023-01-28T09:55:26.792Z,51.216011
2023-01-28T09:56:26.807Z,51.216042
2023-01-28T09:57:26.783Z,51.216049
2023-01-28T09:58:26.787Z,51.216045
2023-01-28T09:59:26.782Z,51.215996
2023-01-28T10:00:26.759Z,51.216156
2023-01-28T10:01:26.788Z,51.216141
2023-01-28T10:02:26.777Z,51.216064
2023-01-28T10:03:26.801Z,51.216099
2023-01-28T10:04:26.745Z,51.216064
2023-01-28T10:05:26.737Z,51.216133
2023-01-28T10:06:26.730Z,51.216125
2023-01-28T10:07:26.716Z,51.216049
2023-01-28T10:08:27.064Z,51.216076
2023-01-28T10:09:26.704Z,51.216015
2023-01-28T10:10:26.711Z,51.216003
2023-01-28T10:11:26.702Z,51.216042
2023-01-28T10:12:26.684Z,51.216026
2023-01-28T10:13:26.669Z,51.216084
2023-01-28T10:14:27.675Z,51.216145
2023-01-28T10:15:26.679Z,51.216152
2023-01-28T10:16:26.655Z,51.216133
2023-01-28T10:17:26.742Z,51.215923
2023-01-28T10:18:26.643Z,51.215950
2023-01-28T10:19:26.642Z,51.216019
2023-01-28T10:20:26.628Z,51.216000
2023-01-28T10:21:26.654Z,51.216000
2023-01-28T10:22:26.676Z,51.216133
2023-01-28T10:23:26.615Z,51.216022
2023-01-28T10:24:27.641Z,51.215889
2023-01-28T10:25:26.633Z,51.216076
2023-01-28T10:26:27.607Z,51.216064
2023-01-28T10:27:26.577Z,51.216114
2023-01-28T10:28:26.626Z,51.215965
2023-01-28T10:29:26.640Z,51.216084
2023-01-28T10:30:26.551Z,51.216076
2023-01-28T10:31:27.570Z,51.216034
2023-01-28T10:32:26.572Z,51.216095
2023-01-28T10:33:26.560Z,51.216129
2023-01-28T10:34:27.128Z,51.216133
2023-01-28T10:35:26.541Z,51.216179
2023-01-28T10:36:26.595Z,51.215954
2023-01-28T10:37:26.518Z,51.215797
2023-01-28T10:38:27.451Z,51.215992
2023-01-28T10:39:26.650Z,51.216095
2023-01-28T10:40:26.568Z,51.216145
2023-01-28T10:41:26.501Z,51.215946
2023-01-28T10:42:26.487Z,51.215878
2023-01-28T10:43:26.516Z,51.215984
2023-01-28T10:44:26.468Z,51.216141
2023-01-28T10:45:26.502Z,51.216137
2023-01-28T10:46:26.462Z,51.216206
2023-01-28T10:47:27.285Z,51.216091
2023-01-28T10:48:26.461Z,51.216091
2023-01-28T10:49:26.427Z,51.216167
2023-01-28T10:50:26.435Z,51.216179
2023-01-28T10:51:26.423Z,51.216076
2023-01-28T10:52:26.410Z,51.216064
2023-01-28T10:53:27.191Z,51.216110
2023-01-28T10:54:27.412Z,51.216122
2023-01-28T10:55:26.860Z,51.216133
2023-01-28T10:56:26.378Z,51.216167
2023-01-28T10:57:26.384Z,51.216076
2023-01-28T10:58:26.391Z,51.215839
2023-01-28T10:59:26.365Z,51.216145
2023-01-28T11:00:26.384Z,51.216118
2023-01-28T11:01:26.418Z,51.216145
2023-01-28T11:02:26.414Z,51.216137
2023-01-28T11:03:26.349Z,51.216061
2023-01-28T11:04:26.375Z,51.216194
2023-01-28T11:05:26.424Z,51.216343
2023-01-28T11:06:26.379Z,51.216270
2023-01-28T11:07:26.326Z,51.216518
2023-01-28T11:08:26.329Z,51.216587
2023-01-28T11:09:26.318Z,51.216805
2023-01-28T11:10:26.316Z,51.216938
2023-01-28T11:11:26.297Z,51.216888
2023-01-28T11:12:26.289Z,51.216984
2023-01-28T11:13:26.301Z,51.217113
2023-01-28T11:14:26.278Z,51.217030
2023-01-28T11:15:26.314Z,51.216888
2023-01-28T11:16:26.268Z,51.216900
2023-01-28T11:17:26.315Z,51.216812
2023-01-28T11:18:26.268Z,51.216812
2023-01-28T11:19:26.253Z,51.216732
2023-01-28T11:20:26.243Z,51.216614
2023-01-28T11:21:26.235Z,51.216610
2023-01-28T11:22:26.236Z,51.216282
2023-01-28T11:23:26.223Z,51.216232
2023-01-28T11:24:26.341Z,51.216148